Portada
METAR-TAF:

METAR-TAF

Aeropuertos :

Recife, Pernambuco, Brasil

Aeropuerto Internacional de Recife

latitud: 08-08S, longitud: 034-55W, altitud: 19 m

Observación

El informe se hizo hace 40 minutos, a las 09:00 UTC
Viento 3 kt del noroeste
Temperatura 24°C
Humedad 89%
Presión 1011 hPa
Visibilidad 10 km o más
Nubes dispersas a una altura de 2500 ft

METAR: SBRF 250900Z 31003KT 9999 SCT025 24/22 Q1011

Hora: 06:40 (09:40 UTC)

Pronóstico

El informe se hizo hace 7 horas y 40 minutos, a las 02:00 UTC
Pronóstico válido del 25 a las 06 UTC al 26 a las 06 UTC
Viento 9 kt del sureste
Visibilidad: 8000 m
Nubes dispersas a una altura de 2000 ft

TAF: SBRF 250200Z 2506/2606 14009KT 8000 SCT020 TN25/2509Z TX31/2515Z RMK PEA

Observaciones y pronósticos meteorológicos de más de 4000 aeropuertos (mensajes METAR y TAF).

Los puntos amarillos y rojos representan las estaciones disponibles.

Ponga el ratón en el punto deseado para ver el nombre de la estación.

Haga clic para ver las observaciones y los pronósticos meteorológicos.

Para cambiar el mapa : haga clic en los botones verdes con una cruz de color negro para hacer un zoom, en el botón verde con un guión para alejar o en las flechas verdes para mapas adyacentes.


METAR-TAF: